sensor_id;sensor_type;location;lat;lon;timestamp;P1;durP1;ratioP1;P2;durP2;ratioP2
23702;SDS011;12030;50.376;8.762;2024-03-02T00:00:37;8.03;;;5.53;;
23702;SDS011;12030;50.376;8.762;2024-03-02T00:03:04;8.87;;;6.40;;
23702;SDS011;12030;50.376;8.762;2024-03-02T00:05:31;5.40;;;4.77;;
23702;SDS011;12030;50.376;8.762;2024-03-02T00:07:57;8.10;;;6.23;;
23702;SDS011;12030;50.376;8.762;2024-03-02T00:10:26;6.20;;;5.57;;
23702;SDS011;12030;50.376;8.762;2024-03-02T00:13:00;7.03;;;5.30;;
23702;SDS011;12030;50.376;8.762;2024-03-02T00:15:31;6.50;;;5.50;;
23702;SDS011;12030;50.376;8.762;2024-03-02T00:18:06;6.20;;;5.17;;
23702;SDS011;12030;50.376;8.762;2024-03-02T00:20:33;5.43;;;4.87;;
23702;SDS011;12030;50.376;8.762;2024-03-02T00:23:05;6.43;;;5.03;;
23702;SDS011;12030;50.376;8.762;2024-03-02T00:28:17;5.27;;;4.70;;
23702;SDS011;12030;50.376;8.762;2024-03-02T00:33:22;8.40;;;5.43;;
23702;SDS011;12030;50.376;8.762;2024-03-02T00:35:48;10.10;;;6.40;;
23702;SDS011;12030;50.376;8.762;2024-03-02T00:38:14;7.67;;;6.63;;
23702;SDS011;12030;50.376;8.762;2024-03-02T00:40:41;10.03;;;7.00;;
23702;SDS011;12030;50.376;8.762;2024-03-02T00:43:11;10.13;;;6.90;;
23702;SDS011;12030;50.376;8.762;2024-03-02T00:46:00;8.27;;;6.87;;
23702;SDS011;12030;50.376;8.762;2024-03-02T00:48:26;9.67;;;7.47;;
23702;SDS011;12030;50.376;8.762;2024-03-02T00:50:52;9.50;;;7.20;;
23702;SDS011;12030;50.376;8.762;2024-03-02T00:53:17;8.10;;;5.63;;
23702;SDS011;12030;50.376;8.762;2024-03-02T00:55:49;6.93;;;5.83;;
23702;SDS011;12030;50.376;8.762;2024-03-02T00:58:15;7.23;;;5.90;;
23702;SDS011;12030;50.376;8.762;2024-03-02T01:00:41;7.77;;;6.50;;
23702;SDS011;12030;50.376;8.762;2024-03-02T01:03:06;7.97;;;6.40;;
23702;SDS011;12030;50.376;8.762;2024-03-02T01:05:32;7.93;;;6.80;;
23702;SDS011;12030;50.376;8.762;2024-03-02T01:07:58;7.60;;;6.33;;
23702;SDS011;12030;50.376;8.762;2024-03-02T01:10:24;8.00;;;6.93;;
23702;SDS011;12030;50.376;8.762;2024-03-02T01:12:50;5.73;;;5.07;;
23702;SDS011;12030;50.376;8.762;2024-03-02T01:15:16;5.83;;;5.00;;
23702;SDS011;12030;50.376;8.762;2024-03-02T01:17:42;7.70;;;6.03;;
23702;SDS011;12030;50.376;8.762;2024-03-02T01:20:08;6.33;;;5.27;;
23702;SDS011;12030;50.376;8.762;2024-03-02T01:22:34;6.07;;;4.40;;
23702;SDS011;12030;50.376;8.762;2024-03-02T01:25:00;5.60;;;4.93;;
23702;SDS011;12030;50.376;8.762;2024-03-02T01:27:26;6.53;;;4.80;;
23702;SDS011;12030;50.376;8.762;2024-03-02T01:29:52;6.17;;;5.07;;
23702;SDS011;12030;50.376;8.762;2024-03-02T01:32:17;5.70;;;5.03;;
23702;SDS011;12030;50.376;8.762;2024-03-02T01:34:43;7.40;;;5.70;;
23702;SDS011;12030;50.376;8.762;2024-03-02T01:37:08;7.03;;;5.23;;
23702;SDS011;12030;50.376;8.762;2024-03-02T01:39:35;6.57;;;5.10;;
23702;SDS011;12030;50.376;8.762;2024-03-02T01:42:00;6.13;;;5.43;;
23702;SDS011;12030;50.376;8.762;2024-03-02T01:44:26;6.97;;;5.67;;
23702;SDS011;12030;50.376;8.762;2024-03-02T01:46:52;7.90;;;6.10;;
23702;SDS011;12030;50.376;8.762;2024-03-02T01:49:17;6.17;;;5.20;;
23702;SDS011;12030;50.376;8.762;2024-03-02T01:51:43;6.03;;;4.53;;
23702;SDS011;12030;50.376;8.762;2024-03-02T01:54:09;5.63;;;4.80;;
23702;SDS011;12030;50.376;8.762;2024-03-02T01:56:35;6.20;;;4.60;;
23702;SDS011;12030;50.376;8.762;2024-03-02T01:59:01;6.53;;;5.20;;
23702;SDS011;12030;50.376;8.762;2024-03-02T02:01:26;8.60;;;6.03;;
23702;SDS011;12030;50.376;8.762;2024-03-02T02:03:52;10.27;;;7.27;;
23702;SDS011;12030;50.376;8.762;2024-03-02T02:06:18;10.43;;;6.83;;
23702;SDS011;12030;50.376;8.762;2024-03-02T02:08:43;9.03;;;6.93;;
23702;SDS011;12030;50.376;8.762;2024-03-02T02:11:10;9.60;;;6.83;;
23702;SDS011;12030;50.376;8.762;2024-03-02T02:13:35;9.47;;;7.07;;
23702;SDS011;12030;50.376;8.762;2024-03-02T02:16:07;7.10;;;6.33;;
23702;SDS011;12030;50.376;8.762;2024-03-02T02:18:33;9.97;;;6.37;;
23702;SDS011;12030;50.376;8.762;2024-03-02T02:20:59;9.00;;;5.87;;
23702;SDS011;12030;50.376;8.762;2024-03-02T02:23:24;8.03;;;6.30;;
23702;SDS011;12030;50.376;8.762;2024-03-02T02:25:50;6.87;;;5.90;;
23702;SDS011;12030;50.376;8.762;2024-03-02T02:28:15;6.87;;;6.10;;
23702;SDS011;12030;50.376;8.762;2024-03-02T02:30:41;6.73;;;5.13;;
23702;SDS011;12030;50.376;8.762;2024-03-02T02:33:07;6.53;;;5.57;;
23702;SDS011;12030;50.376;8.762;2024-03-02T02:35:34;6.50;;;4.97;;
23702;SDS011;12030;50.376;8.762;2024-03-02T02:37:59;7.03;;;5.73;;
23702;SDS011;12030;50.376;8.762;2024-03-02T02:40:25;6.37;;;5.60;;
23702;SDS011;12030;50.376;8.762;2024-03-02T02:42:51;6.37;;;5.17;;
23702;SDS011;12030;50.376;8.762;2024-03-02T02:45:17;5.93;;;5.20;;
23702;SDS011;12030;50.376;8.762;2024-03-02T02:47:43;7.73;;;5.53;;
23702;SDS011;12030;50.376;8.762;2024-03-02T02:50:09;8.60;;;6.50;;
23702;SDS011;12030;50.376;8.762;2024-03-02T02:52:36;5.80;;;5.03;;
23702;SDS011;12030;50.376;8.762;2024-03-02T02:55:05;6.20;;;5.00;;
23702;SDS011;12030;50.376;8.762;2024-03-02T02:57:32;5.80;;;4.67;;
23702;SDS011;12030;50.376;8.762;2024-03-02T03:00:02;5.80;;;5.20;;
23702;SDS011;12030;50.376;8.762;2024-03-02T03:02:38;6.23;;;4.90;;
23702;SDS011;12030;50.376;8.762;2024-03-02T03:05:05;5.23;;;4.50;;
23702;SDS011;12030;50.376;8.762;2024-03-02T03:07:31;5.33;;;4.83;;
23702;SDS011;12030;50.376;8.762;2024-03-02T03:09:58;5.80;;;4.63;;
23702;SDS011;12030;50.376;8.762;2024-03-02T03:12:23;5.77;;;5.10;;
23702;SDS011;12030;50.376;8.762;2024-03-02T03:14:49;7.57;;;6.10;;
23702;SDS011;12030;50.376;8.762;2024-03-02T03:17:14;11.67;;;7.77;;
23702;SDS011;12030;50.376;8.762;2024-03-02T03:19:39;18.30;;;10.77;;
23702;SDS011;12030;50.376;8.762;2024-03-02T03:22:05;19.73;;;12.67;;
23702;SDS011;12030;50.376;8.762;2024-03-02T03:24:31;21.33;;;12.90;;
23702;SDS011;12030;50.376;8.762;2024-03-02T03:26:57;18.93;;;10.73;;
23702;SDS011;12030;50.376;8.762;2024-03-02T03:29:23;14.10;;;9.80;;
23702;SDS011;12030;50.376;8.762;2024-03-02T03:31:48;11.23;;;7.70;;
23702;SDS011;12030;50.376;8.762;2024-03-02T03:34:14;11.23;;;8.10;;
23702;SDS011;12030;50.376;8.762;2024-03-02T03:36:41;11.17;;;8.23;;
23702;SDS011;12030;50.376;8.762;2024-03-02T03:39:06;9.90;;;8.40;;
23702;SDS011;12030;50.376;8.762;2024-03-02T03:41:32;13.30;;;9.27;;
23702;SDS011;12030;50.376;8.762;2024-03-02T03:43:57;13.53;;;8.97;;
23702;SDS011;12030;50.376;8.762;2024-03-02T03:46:23;13.80;;;9.90;;
23702;SDS011;12030;50.376;8.762;2024-03-02T03:48:49;12.90;;;8.87;;
23702;SDS011;12030;50.376;8.762;2024-03-02T03:51:14;16.87;;;11.37;;
23702;SDS011;12030;50.376;8.762;2024-03-02T03:53:40;17.53;;;11.57;;
23702;SDS011;12030;50.376;8.762;2024-03-02T03:56:05;16.33;;;11.50;;
23702;SDS011;12030;50.376;8.762;2024-03-02T03:58:31;13.67;;;10.20;;
23702;SDS011;12030;50.376;8.762;2024-03-02T04:00:57;11.77;;;9.70;;
23702;SDS011;12030;50.376;8.762;2024-03-02T04:03:22;14.27;;;10.43;;
23702;SDS011;12030;50.376;8.762;2024-03-02T04:05:48;15.27;;;10.83;;
23702;SDS011;12030;50.376;8.762;2024-03-02T04:08:13;11.50;;;9.73;;
23702;SDS011;12030;50.376;8.762;2024-03-02T04:10:39;14.00;;;9.83;;
23702;SDS011;12030;50.376;8.762;2024-03-02T04:13:05;12.77;;;10.07;;
23702;SDS011;12030;50.376;8.762;2024-03-02T04:15:31;12.07;;;9.73;;
23702;SDS011;12030;50.376;8.762;2024-03-02T04:17:56;17.57;;;11.30;;
23702;SDS011;12030;50.376;8.762;2024-03-02T04:20:22;16.73;;;10.80;;
23702;SDS011;12030;50.376;8.762;2024-03-02T04:22:47;19.40;;;12.30;;
23702;SDS011;12030;50.376;8.762;2024-03-02T04:25:13;21.10;;;13.43;;
23702;SDS011;12030;50.376;8.762;2024-03-02T04:27:38;18.73;;;12.07;;
23702;SDS011;12030;50.376;8.762;2024-03-02T04:30:04;18.57;;;13.70;;
23702;SDS011;12030;50.376;8.762;2024-03-02T04:32:30;22.20;;;14.70;;
23702;SDS011;12030;50.376;8.762;2024-03-02T04:34:56;19.23;;;13.77;;
23702;SDS011;12030;50.376;8.762;2024-03-02T04:37:22;18.57;;;13.07;;
23702;SDS011;12030;50.376;8.762;2024-03-02T04:39:47;17.77;;;13.53;;
23702;SDS011;12030;50.376;8.762;2024-03-02T04:42:13;17.20;;;13.20;;
23702;SDS011;12030;50.376;8.762;2024-03-02T04:44:38;21.17;;;13.80;;
23702;SDS011;12030;50.376;8.762;2024-03-02T04:47:04;18.43;;;13.33;;
23702;SDS011;12030;50.376;8.762;2024-03-02T04:49:30;19.53;;;14.07;;
23702;SDS011;12030;50.376;8.762;2024-03-02T04:51:56;19.23;;;14.40;;
23702;SDS011;12030;50.376;8.762;2024-03-02T04:54:24;20.23;;;14.30;;
23702;SDS011;12030;50.376;8.762;2024-03-02T04:56:50;19.93;;;14.03;;
23702;SDS011;12030;50.376;8.762;2024-03-02T04:59:19;17.57;;;13.30;;
23702;SDS011;12030;50.376;8.762;2024-03-02T05:01:45;18.80;;;12.97;;
23702;SDS011;12030;50.376;8.762;2024-03-02T05:04:11;19.30;;;13.97;;
23702;SDS011;12030;50.376;8.762;2024-03-02T05:06:39;15.40;;;10.80;;
23702;SDS011;12030;50.376;8.762;2024-03-02T05:09:06;12.73;;;10.33;;
23702;SDS011;12030;50.376;8.762;2024-03-02T05:11:32;14.00;;;10.00;;
23702;SDS011;12030;50.376;8.762;2024-03-02T05:14:21;12.73;;;9.63;;
23702;SDS011;12030;50.376;8.762;2024-03-02T05:16:46;10.63;;;8.40;;
23702;SDS011;12030;50.376;8.762;2024-03-02T05:19:12;11.20;;;8.07;;
23702;SDS011;12030;50.376;8.762;2024-03-02T05:21:37;11.50;;;9.10;;
23702;SDS011;12030;50.376;8.762;2024-03-02T05:24:03;11.73;;;9.07;;
23702;SDS011;12030;50.376;8.762;2024-03-02T05:26:29;11.90;;;8.90;;
23702;SDS011;12030;50.376;8.762;2024-03-02T05:28:54;10.70;;;8.80;;
23702;SDS011;12030;50.376;8.762;2024-03-02T05:31:20;14.80;;;9.33;;
23702;SDS011;12030;50.376;8.762;2024-03-02T05:33:45;10.67;;;8.50;;
23702;SDS011;12030;50.376;8.762;2024-03-02T05:36:10;13.43;;;9.27;;
23702;SDS011;12030;50.376;8.762;2024-03-02T05:38:36;12.00;;;8.93;;
23702;SDS011;12030;50.376;8.762;2024-03-02T05:41:02;11.60;;;8.63;;
23702;SDS011;12030;50.376;8.762;2024-03-02T05:43:28;10.23;;;8.27;;
23702;SDS011;12030;50.376;8.762;2024-03-02T05:45:54;13.43;;;9.67;;
23702;SDS011;12030;50.376;8.762;2024-03-02T05:48:19;11.80;;;8.97;;
23702;SDS011;12030;50.376;8.762;2024-03-02T05:50:45;13.17;;;8.77;;
23702;SDS011;12030;50.376;8.762;2024-03-02T05:53:10;11.27;;;8.40;;
23702;SDS011;12030;50.376;8.762;2024-03-02T05:55:36;12.87;;;9.60;;
23702;SDS011;12030;50.376;8.762;2024-03-02T05:58:02;10.83;;;8.47;;
23702;SDS011;12030;50.376;8.762;2024-03-02T06:00:27;15.40;;;10.10;;
23702;SDS011;12030;50.376;8.762;2024-03-02T06:02:53;17.10;;;12.23;;
23702;SDS011;12030;50.376;8.762;2024-03-02T06:05:18;18.83;;;13.23;;
23702;SDS011;12030;50.376;8.762;2024-03-02T06:07:44;23.10;;;14.63;;
23702;SDS011;12030;50.376;8.762;2024-03-02T06:10:12;21.90;;;13.73;;
23702;SDS011;12030;50.376;8.762;2024-03-02T06:12:38;25.47;;;15.20;;
23702;SDS011;12030;50.376;8.762;2024-03-02T06:15:04;20.43;;;14.30;;
23702;SDS011;12030;50.376;8.762;2024-03-02T06:17:29;21.73;;;14.77;;
23702;SDS011;12030;50.376;8.762;2024-03-02T06:19:55;21.13;;;13.43;;
23702;SDS011;12030;50.376;8.762;2024-03-02T06:22:21;24.40;;;16.20;;
23702;SDS011;12030;50.376;8.762;2024-03-02T06:24:49;21.33;;;14.17;;
23702;SDS011;12030;50.376;8.762;2024-03-02T06:27:15;24.77;;;15.50;;
23702;SDS011;12030;50.376;8.762;2024-03-02T06:29:41;26.07;;;16.70;;
23702;SDS011;12030;50.376;8.762;2024-03-02T06:32:07;24.70;;;16.57;;
23702;SDS011;12030;50.376;8.762;2024-03-02T06:34:32;27.43;;;16.67;;
23702;SDS011;12030;50.376;8.762;2024-03-02T06:36:58;23.97;;;15.80;;
23702;SDS011;12030;50.376;8.762;2024-03-02T06:39:23;25.33;;;16.30;;
23702;SDS011;12030;50.376;8.762;2024-03-02T06:41:50;27.57;;;17.07;;
23702;SDS011;12030;50.376;8.762;2024-03-02T06:44:16;24.57;;;17.07;;
23702;SDS011;12030;50.376;8.762;2024-03-02T06:46:42;27.00;;;16.63;;
23702;SDS011;12030;50.376;8.762;2024-03-02T06:49:07;24.17;;;17.20;;
23702;SDS011;12030;50.376;8.762;2024-03-02T06:51:35;25.23;;;16.33;;
23702;SDS011;12030;50.376;8.762;2024-03-02T06:54:00;20.37;;;15.50;;
23702;SDS011;12030;50.376;8.762;2024-03-02T06:56:26;23.30;;;16.87;;
23702;SDS011;12030;50.376;8.762;2024-03-02T06:58:51;23.80;;;17.23;;
23702;SDS011;12030;50.376;8.762;2024-03-02T07:01:17;24.37;;;17.57;;
23702;SDS011;12030;50.376;8.762;2024-03-02T07:03:42;24.53;;;17.77;;
23702;SDS011;12030;50.376;8.762;2024-03-02T07:06:09;25.33;;;17.53;;
23702;SDS011;12030;50.376;8.762;2024-03-02T07:08:34;26.60;;;18.27;;
23702;SDS011;12030;50.376;8.762;2024-03-02T07:11:00;24.63;;;17.27;;
23702;SDS011;12030;50.376;8.762;2024-03-02T07:13:25;27.93;;;18.43;;
23702;SDS011;12030;50.376;8.762;2024-03-02T07:15:51;23.47;;;17.03;;
23702;SDS011;12030;50.376;8.762;2024-03-02T07:18:32;26.67;;;18.17;;
23702;SDS011;12030;50.376;8.762;2024-03-02T07:20:58;21.83;;;16.97;;
23702;SDS011;12030;50.376;8.762;2024-03-02T07:23:26;22.07;;;16.57;;
23702;SDS011;12030;50.376;8.762;2024-03-02T07:25:55;22.90;;;16.27;;
23702;SDS011;12030;50.376;8.762;2024-03-02T07:28:22;22.37;;;16.93;;
23702;SDS011;12030;50.376;8.762;2024-03-02T07:30:57;22.67;;;16.63;;
23702;SDS011;12030;50.376;8.762;2024-03-02T07:33:29;22.30;;;17.00;;
23702;SDS011;12030;50.376;8.762;2024-03-02T07:35:55;23.37;;;16.67;;
23702;SDS011;12030;50.376;8.762;2024-03-02T07:38:22;21.27;;;16.07;;
23702;SDS011;12030;50.376;8.762;2024-03-02T07:40:48;19.07;;;15.23;;
23702;SDS011;12030;50.376;8.762;2024-03-02T07:43:18;22.57;;;14.53;;
23702;SDS011;12030;50.376;8.762;2024-03-02T07:45:44;20.83;;;16.10;;
23702;SDS011;12030;50.376;8.762;2024-03-02T07:48:10;18.63;;;15.10;;
23702;SDS011;12030;50.376;8.762;2024-03-02T07:50:35;22.20;;;15.87;;
23702;SDS011;12030;50.376;8.762;2024-03-02T07:53:02;20.67;;;15.67;;
23702;SDS011;12030;50.376;8.762;2024-03-02T07:55:28;18.63;;;15.17;;
23702;SDS011;12030;50.376;8.762;2024-03-02T07:57:55;20.67;;;15.23;;
23702;SDS011;12030;50.376;8.762;2024-03-02T08:00:21;17.63;;;14.43;;
23702;SDS011;12030;50.376;8.762;2024-03-02T08:02:47;17.70;;;14.27;;
23702;SDS011;12030;50.376;8.762;2024-03-02T08:05:13;20.97;;;15.13;;
23702;SDS011;12030;50.376;8.762;2024-03-02T08:07:39;19.27;;;15.23;;
23702;SDS011;12030;50.376;8.762;2024-03-02T08:10:05;17.73;;;14.70;;
23702;SDS011;12030;50.376;8.762;2024-03-02T08:12:30;20.93;;;16.37;;
23702;SDS011;12030;50.376;8.762;2024-03-02T08:14:56;20.70;;;16.10;;
23702;SDS011;12030;50.376;8.762;2024-03-02T08:17:21;20.97;;;16.43;;
23702;SDS011;12030;50.376;8.762;2024-03-02T08:19:47;20.37;;;15.23;;
23702;SDS011;12030;50.376;8.762;2024-03-02T08:22:14;18.33;;;14.80;;
23702;SDS011;12030;50.376;8.762;2024-03-02T08:24:40;21.60;;;15.60;;
23702;SDS011;12030;50.376;8.762;2024-03-02T08:27:06;21.27;;;16.13;;
23702;SDS011;12030;50.376;8.762;2024-03-02T08:29:31;20.30;;;15.97;;
23702;SDS011;12030;50.376;8.762;2024-03-02T08:31:57;17.13;;;14.27;;
23702;SDS011;12030;50.376;8.762;2024-03-02T08:34:22;18.93;;;15.60;;
23702;SDS011;12030;50.376;8.762;2024-03-02T08:36:48;19.07;;;16.20;;
23702;SDS011;12030;50.376;8.762;2024-03-02T08:39:14;17.43;;;14.17;;
23702;SDS011;12030;50.376;8.762;2024-03-02T08:41:42;17.30;;;14.47;;
23702;SDS011;12030;50.376;8.762;2024-03-02T08:44:11;17.33;;;13.67;;
23702;SDS011;12030;50.376;8.762;2024-03-02T08:46:38;16.60;;;13.87;;
23702;SDS011;12030;50.376;8.762;2024-03-02T08:49:04;17.67;;;13.20;;
23702;SDS011;12030;50.376;8.762;2024-03-02T08:51:30;15.87;;;14.17;;
23702;SDS011;12030;50.376;8.762;2024-03-02T08:53:56;14.70;;;13.13;;
23702;SDS011;12030;50.376;8.762;2024-03-02T08:56:22;14.60;;;12.97;;
23702;SDS011;12030;50.376;8.762;2024-03-02T08:58:49;16.07;;;12.17;;
23702;SDS011;12030;50.376;8.762;2024-03-02T09:01:15;13.83;;;11.87;;
23702;SDS011;12030;50.376;8.762;2024-03-02T09:03:41;12.87;;;11.17;;
23702;SDS011;12030;50.376;8.762;2024-03-02T09:06:10;12.70;;;10.80;;
23702;SDS011;12030;50.376;8.762;2024-03-02T09:08:36;13.27;;;11.47;;
23702;SDS011;12030;50.376;8.762;2024-03-02T09:11:04;11.63;;;10.40;;
23702;SDS011;12030;50.376;8.762;2024-03-02T09:13:30;13.53;;;11.63;;
23702;SDS011;12030;50.376;8.762;2024-03-02T09:15:56;13.47;;;11.60;;
23702;SDS011;12030;50.376;8.762;2024-03-02T09:18:22;12.37;;;10.97;;
23702;SDS011;12030;50.376;8.762;2024-03-02T09:20:47;11.67;;;10.40;;
23702;SDS011;12030;50.376;8.762;2024-03-02T09:23:13;12.40;;;10.63;;
23702;SDS011;12030;50.376;8.762;2024-03-02T09:25:39;11.50;;;9.87;;
23702;SDS011;12030;50.376;8.762;2024-03-02T09:28:04;10.67;;;9.57;;
23702;SDS011;12030;50.376;8.762;2024-03-02T09:30:30;11.80;;;10.57;;
23702;SDS011;12030;50.376;8.762;2024-03-02T09:32:56;11.93;;;10.67;;
23702;SDS011;12030;50.376;8.762;2024-03-02T09:35:21;11.20;;;10.00;;
23702;SDS011;12030;50.376;8.762;2024-03-02T09:37:47;11.73;;;10.50;;
23702;SDS011;12030;50.376;8.762;2024-03-02T09:40:13;10.87;;;9.57;;
23702;SDS011;12030;50.376;8.762;2024-03-02T09:42:39;12.03;;;9.93;;
23702;SDS011;12030;50.376;8.762;2024-03-02T09:45:05;12.97;;;10.43;;
23702;SDS011;12030;50.376;8.762;2024-03-02T09:47:31;10.83;;;9.73;;
23702;SDS011;12030;50.376;8.762;2024-03-02T09:49:57;10.63;;;9.50;;
23702;SDS011;12030;50.376;8.762;2024-03-02T09:52:23;11.47;;;9.90;;
23702;SDS011;12030;50.376;8.762;2024-03-02T09:54:49;11.47;;;9.80;;
23702;SDS011;12030;50.376;8.762;2024-03-02T09:57:14;12.07;;;9.97;;
23702;SDS011;12030;50.376;8.762;2024-03-02T09:59:40;10.90;;;9.47;;
23702;SDS011;12030;50.376;8.762;2024-03-02T10:02:06;12.40;;;9.97;;
23702;SDS011;12030;50.376;8.762;2024-03-02T10:04:32;11.73;;;9.80;;
23702;SDS011;12030;50.376;8.762;2024-03-02T10:07:13;11.10;;;9.40;;
23702;SDS011;12030;50.376;8.762;2024-03-02T10:09:43;11.57;;;10.00;;
23702;SDS011;12030;50.376;8.762;2024-03-02T10:12:10;12.13;;;9.20;;
23702;SDS011;12030;50.376;8.762;2024-03-02T10:14:37;12.80;;;9.50;;
23702;SDS011;12030;50.376;8.762;2024-03-02T10:17:04;10.13;;;8.80;;
23702;SDS011;12030;50.376;8.762;2024-03-02T10:19:40;12.53;;;9.63;;
23702;SDS011;12030;50.376;8.762;2024-03-02T10:22:09;10.00;;;8.90;;
23702;SDS011;12030;50.376;8.762;2024-03-02T10:27:08;10.40;;;9.20;;
23702;SDS011;12030;50.376;8.762;2024-03-02T10:29:36;11.43;;;8.97;;
23702;SDS011;12030;50.376;8.762;2024-03-02T10:32:04;9.80;;;8.80;;
23702;SDS011;12030;50.376;8.762;2024-03-02T10:34:31;12.17;;;9.27;;
23702;SDS011;12030;50.376;8.762;2024-03-02T10:36:57;11.27;;;9.27;;
23702;SDS011;12030;50.376;8.762;2024-03-02T10:39:23;11.77;;;9.17;;
23702;SDS011;12030;50.376;8.762;2024-03-02T10:41:49;9.47;;;8.40;;
23702;SDS011;12030;50.376;8.762;2024-03-02T10:44:17;11.00;;;8.70;;
23702;SDS011;12030;50.376;8.762;2024-03-02T10:46:43;9.57;;;8.00;;
23702;SDS011;12030;50.376;8.762;2024-03-02T10:49:12;9.60;;;7.93;;
23702;SDS011;12030;50.376;8.762;2024-03-02T10:51:37;11.33;;;8.67;;
23702;SDS011;12030;50.376;8.762;2024-03-02T10:54:03;10.40;;;8.07;;
23702;SDS011;12030;50.376;8.762;2024-03-02T10:56:33;10.17;;;8.13;;
23702;SDS011;12030;50.376;8.762;2024-03-02T11:01:28;11.30;;;7.80;;
23702;SDS011;12030;50.376;8.762;2024-03-02T11:03:56;10.40;;;8.33;;
23702;SDS011;12030;50.376;8.762;2024-03-02T11:06:23;8.57;;;7.50;;
23702;SDS011;12030;50.376;8.762;2024-03-02T11:08:51;8.80;;;7.07;;
23702;SDS011;12030;50.376;8.762;2024-03-02T11:11:21;9.17;;;7.63;;
23702;SDS011;12030;50.376;8.762;2024-03-02T11:13:54;9.77;;;7.87;;
23702;SDS011;12030;50.376;8.762;2024-03-02T11:16:33;8.77;;;7.37;;
23702;SDS011;12030;50.376;8.762;2024-03-02T11:19:04;9.63;;;7.37;;
23702;SDS011;12030;50.376;8.762;2024-03-02T11:21:32;8.23;;;7.00;;
23702;SDS011;12030;50.376;8.762;2024-03-02T11:26:48;8.97;;;7.37;;
23702;SDS011;12030;50.376;8.762;2024-03-02T11:32:02;7.90;;;6.87;;
23702;SDS011;12030;50.376;8.762;2024-03-02T11:34:43;7.83;;;6.80;;
23702;SDS011;12030;50.376;8.762;2024-03-02T11:37:14;8.47;;;6.97;;
23702;SDS011;12030;50.376;8.762;2024-03-02T11:39:42;8.17;;;6.37;;
23702;SDS011;12030;50.376;8.762;2024-03-02T11:42:12;8.10;;;7.27;;
23702;SDS011;12030;50.376;8.762;2024-03-02T11:44:39;7.10;;;6.40;;
23702;SDS011;12030;50.376;8.762;2024-03-02T11:47:14;8.73;;;6.50;;
23702;SDS011;12030;50.376;8.762;2024-03-02T11:49:44;7.97;;;6.23;;
23702;SDS011;12030;50.376;8.762;2024-03-02T11:52:19;7.03;;;5.83;;
23702;SDS011;12030;50.376;8.762;2024-03-02T11:54:47;7.60;;;6.33;;
23702;SDS011;12030;50.376;8.762;2024-03-02T11:57:17;7.07;;;6.37;;
23702;SDS011;12030;50.376;8.762;2024-03-02T11:59:44;6.07;;;5.47;;
23702;SDS011;12030;50.376;8.762;2024-03-02T12:02:17;7.10;;;5.87;;
23702;SDS011;12030;50.376;8.762;2024-03-02T12:04:44;6.97;;;5.93;;
23702;SDS011;12030;50.376;8.762;2024-03-02T12:07:11;5.63;;;4.77;;
23702;SDS011;12030;50.376;8.762;2024-03-02T12:09:37;7.03;;;5.57;;
23702;SDS011;12030;50.376;8.762;2024-03-02T12:12:04;5.60;;;4.97;;
23702;SDS011;12030;50.376;8.762;2024-03-02T12:14:31;6.53;;;5.27;;
23702;SDS011;12030;50.376;8.762;2024-03-02T12:16:57;5.77;;;4.70;;
23702;SDS011;12030;50.376;8.762;2024-03-02T12:19:23;6.33;;;4.73;;
23702;SDS011;12030;50.376;8.762;2024-03-02T12:21:50;7.20;;;4.43;;
23702;SDS011;12030;50.376;8.762;2024-03-02T12:24:16;5.33;;;4.53;;
23702;SDS011;12030;50.376;8.762;2024-03-02T12:26:42;4.50;;;3.87;;
23702;SDS011;12030;50.376;8.762;2024-03-02T12:29:08;4.23;;;3.83;;
23702;SDS011;12030;50.376;8.762;2024-03-02T12:31:34;4.50;;;3.60;;
23702;SDS011;12030;50.376;8.762;2024-03-02T12:34:00;5.07;;;4.00;;
23702;SDS011;12030;50.376;8.762;2024-03-02T12:36:27;3.63;;;2.97;;
23702;SDS011;12030;50.376;8.762;2024-03-02T12:38:53;5.50;;;3.83;;
23702;SDS011;12030;50.376;8.762;2024-03-02T12:41:19;4.67;;;3.50;;
23702;SDS011;12030;50.376;8.762;2024-03-02T12:43:45;4.30;;;3.30;;
23702;SDS011;12030;50.376;8.762;2024-03-02T12:46:11;3.83;;;3.23;;
23702;SDS011;12030;50.376;8.762;2024-03-02T12:48:37;4.13;;;3.30;;
23702;SDS011;12030;50.376;8.762;2024-03-02T12:51:05;3.70;;;2.97;;
23702;SDS011;12030;50.376;8.762;2024-03-02T12:53:31;4.63;;;3.77;;
23702;SDS011;12030;50.376;8.762;2024-03-02T12:55:57;4.73;;;3.10;;
23702;SDS011;12030;50.376;8.762;2024-03-02T12:58:23;4.90;;;3.20;;
23702;SDS011;12030;50.376;8.762;2024-03-02T13:00:49;7.53;;;4.53;;
23702;SDS011;12030;50.376;8.762;2024-03-02T13:03:14;6.83;;;5.30;;
23702;SDS011;12030;50.376;8.762;2024-03-02T13:05:48;4.80;;;4.20;;
23702;SDS011;12030;50.376;8.762;2024-03-02T13:08:15;4.03;;;2.67;;
23702;SDS011;12030;50.376;8.762;2024-03-02T13:10:41;3.97;;;3.00;;
23702;SDS011;12030;50.376;8.762;2024-03-02T13:13:06;3.93;;;3.53;;
23702;SDS011;12030;50.376;8.762;2024-03-02T13:15:35;4.63;;;3.30;;
23702;SDS011;12030;50.376;8.762;2024-03-02T13:18:01;3.60;;;3.00;;
23702;SDS011;12030;50.376;8.762;2024-03-02T13:20:32;3.83;;;3.40;;
23702;SDS011;12030;50.376;8.762;2024-03-02T13:22:58;4.77;;;3.20;;
23702;SDS011;12030;50.376;8.762;2024-03-02T13:25:23;4.37;;;3.00;;
23702;SDS011;12030;50.376;8.762;2024-03-02T13:27:48;4.20;;;3.40;;
23702;SDS011;12030;50.376;8.762;2024-03-02T13:30:14;3.93;;;3.00;;
23702;SDS011;12030;50.376;8.762;2024-03-02T13:32:40;3.87;;;3.30;;
23702;SDS011;12030;50.376;8.762;2024-03-02T13:35:05;5.57;;;3.10;;
23702;SDS011;12030;50.376;8.762;2024-03-02T13:37:31;3.63;;;3.03;;
23702;SDS011;12030;50.376;8.762;2024-03-02T13:39:57;3.93;;;2.83;;
23702;SDS011;12030;50.376;8.762;2024-03-02T13:42:22;3.77;;;2.77;;
23702;SDS011;12030;50.376;8.762;2024-03-02T13:44:48;4.03;;;3.20;;
23702;SDS011;12030;50.376;8.762;2024-03-02T13:47:15;4.37;;;3.07;;
23702;SDS011;12030;50.376;8.762;2024-03-02T13:49:41;4.20;;;3.00;;
23702;SDS011;12030;50.376;8.762;2024-03-02T13:52:11;3.40;;;3.07;;
23702;SDS011;12030;50.376;8.762;2024-03-02T13:54:40;3.57;;;2.87;;
23702;SDS011;12030;50.376;8.762;2024-03-02T13:57:07;4.30;;;2.90;;
23702;SDS011;12030;50.376;8.762;2024-03-02T13:59:33;3.27;;;2.90;;
23702;SDS011;12030;50.376;8.762;2024-03-02T14:02:00;4.30;;;3.53;;
23702;SDS011;12030;50.376;8.762;2024-03-02T14:04:26;4.60;;;3.33;;
23702;SDS011;12030;50.376;8.762;2024-03-02T14:06:52;4.40;;;2.90;;
23702;SDS011;12030;50.376;8.762;2024-03-02T14:09:18;3.27;;;2.97;;
23702;SDS011;12030;50.376;8.762;2024-03-02T14:11:45;4.07;;;2.73;;
23702;SDS011;12030;50.376;8.762;2024-03-02T14:14:11;4.10;;;3.13;;
23702;SDS011;12030;50.376;8.762;2024-03-02T14:16:36;3.47;;;2.97;;
23702;SDS011;12030;50.376;8.762;2024-03-02T14:19:02;3.40;;;2.70;;
23702;SDS011;12030;50.376;8.762;2024-03-02T14:21:29;3.00;;;2.43;;
23702;SDS011;12030;50.376;8.762;2024-03-02T14:23:55;2.90;;;2.50;;
23702;SDS011;12030;50.376;8.762;2024-03-02T14:26:21;2.57;;;2.27;;
23702;SDS011;12030;50.376;8.762;2024-03-02T14:28:46;3.00;;;2.43;;
23702;SDS011;12030;50.376;8.762;2024-03-02T14:31:12;5.50;;;2.20;;
23702;SDS011;12030;50.376;8.762;2024-03-02T14:33:38;3.40;;;2.13;;
23702;SDS011;12030;50.376;8.762;2024-03-02T14:36:03;2.90;;;1.97;;
23702;SDS011;12030;50.376;8.762;2024-03-02T14:38:29;2.93;;;2.10;;
23702;SDS011;12030;50.376;8.762;2024-03-02T14:40:56;2.20;;;1.97;;
23702;SDS011;12030;50.376;8.762;2024-03-02T14:43:22;2.70;;;2.17;;
23702;SDS011;12030;50.376;8.762;2024-03-02T14:45:48;3.10;;;2.40;;
23702;SDS011;12030;50.376;8.762;2024-03-02T14:48:14;2.23;;;2.03;;